| time (UTC) | temp F | wind direction | speed MPH | gust MPH | rain 1hr in | rain 24hr in | rain mn in | humidity % | barometer mb |
| 20260502194521 | 43 | 68 | 0.0 | 0.0 | 0.00 | 0.00 | 0.00 | 94 | |
| 20260502194021 | 44 | 68 | 0.0 | 0.0 | 0.00 | 0.00 | 0.00 | 95 | |
| 20260502193521 | 44 | 68 | 0.0 | 0.0 | 0.00 | 0.00 | 0.00 | 94 | |
| 20260502193021 | 44 | 68 | 0.0 | 0.0 | 0.00 | 0.00 | 0.00 | 92 | |
| 20260502192521 | 45 | 68 | 0.0 | 0.0 | 0.00 | 0.00 | 0.00 | 93 | |
| 20260502192021 | 45 | 68 | 0.0 | 0.0 | 0.00 | 0.00 | 0.00 | 91 | |
| 20260502191521 | 45 | 68 | 0.0 | 0.0 | 0.00 | 0.00 | 0.00 | 89 | |
| 20260502191021 | 46 | 68 | 0.0 | 0.0 | 0.00 | 0.00 | 0.00 | 87 | |
| 20260502190521 | 46 | 68 | 0.0 | 0.0 | 0.00 | 0.00 | 0.00 | 87 | |
| 20260502190021 | 46 | 68 | 0.0 | 0.0 | 0.00 | 0.00 | 0.00 | 86 | |
| 20260502185521 | 47 | 68 | 0.0 | 0.0 | 0.00 | 0.00 | 0.00 | 85 | |
| 20260502185021 | 47 | 68 | 0.0 | 0.0 | 0.00 | 0.00 | 0.00 | 85 | |
| 20260502184521 | 48 | 68 | 0.0 | 0.0 | 0.00 | 0.00 | 0.00 | 83 | |
| 20260502184021 | 48 | 68 | 0.0 | 0.0 | 0.00 | 0.00 | 0.00 | 81 | |
| 20260502183521 | 49 | 68 | 0.0 | 0.0 | 0.00 | 0.00 | 0.00 | 78 | |
| 20260502183021 | 49 | 68 | 0.0 | 0.0 | 0.00 | 0.00 | 0.00 | 76 | |
| 20260502182521 | 49 | 68 | 0.0 | 0.0 | 0.00 | 0.00 | 0.00 | 75 | |
| 20260502182049 | 50 | 68 | 0.0 | 0.0 | 0.00 | 0.00 | 0.00 | 74 | |
| 20260502181521 | 51 | 68 | 0.0 | 0.0 | 0.00 | 0.00 | 0.00 | 71 | |
| 20260502181021 | 51 | 68 | 0.0 | 0.0 | 0.00 | 0.00 | 0.00 | 69 | |
| 20260502180521 | 52 | 68 | 0.0 | 0.0 | 0.00 | 0.00 | 0.00 | 68 | |
| 20260502162522 | 66 | 68 | 0.0 | 0.0 | 0.00 | 0.00 | 0.00 | 36 | |
| 20260502162050 | 65 | 68 | 0.0 | 0.0 | 0.00 | 0.00 | 0.00 | 36 | |
| 20260502152022 | 66 | 68 | 0.0 | 0.0 | 0.00 | 0.00 | 0.00 | 36 | |
| 20260502150538 | 66 | 68 | 0.0 | 0.0 | 0.00 | 0.00 | 0.00 | 37 | |
| 20260502123522 | 64 | 68 | 0.0 | 0.0 | 0.00 | 0.00 | 0.00 | 39 | |
| 20260502123049 | 64 | 68 | 0.0 | 0.0 | 0.00 | 0.00 | 0.00 | 39 | |
| 20260502122522 | 64 | 68 | 0.0 | 0.0 | 0.00 | 0.00 | 0.00 | 40 | |
| 20260502122022 | 64 | 68 | 0.0 | 0.0 | 0.00 | 0.00 | 0.00 | 40 | |
| 20260502121522 | 64 | 68 | 0.0 | 0.0 | 0.00 | 0.00 | 0.00 | 38 | |
| 20260502121022 | 63 | 68 | 0.0 | 0.0 | 0.00 | 0.00 | 0.00 | 41 | |
| 20260502120522 | 63 | 68 | 0.0 | 0.0 | 0.00 | 0.00 | 0.00 | 40 | |
| 20260502115522 | 63 | 68 | 0.0 | 0.0 | 0.00 | 0.00 | 0.00 | 39 | |
| 20260502115022 | 63 | 68 | 0.0 | 0.0 | 0.00 | 0.00 | 0.00 | 41 | |
| 20260502114702 | 63 | 68 | 0.0 | 0.0 | 0.00 | 0.00 | 0.00 | 42 | |
| 20260502114022 | 63 | 68 | 0.0 | 0.0 | 0.00 | 0.00 | 0.00 | 41 | |
| 20260502113534 | 62 | 68 | 0.0 | 0.0 | 0.00 | 0.00 | 0.00 | 40 | |
| 20260502113022 | 62 | 68 | 0.0 | 0.0 | 0.00 | 0.00 | 0.00 | 41 | |
| 20260502112522 | 62 | 68 | 0.0 | 0.0 | 0.00 | 0.00 | 0.00 | 41 | |
| 20260502112022 | 62 | 68 | 0.0 | 0.0 | 0.00 | 0.00 | 0.00 | 41 | |
| 20260502111613 | 62 | 68 | 0.0 | 0.0 | 0.00 | 0.00 | 0.00 | 41 | |
| 20260502111025 | 62 | 68 | 0.0 | 0.0 | 0.00 | 0.00 | 0.00 | 41 | |
| 20260502110522 | 62 | 68 | 0.0 | 0.0 | 0.00 | 0.00 | 0.00 | 42 | |
| 20260502110022 | 62 | 68 | 0.0 | 0.0 | 0.00 | 0.00 | 0.00 | 41 | |
| 20260502105522 | 62 | 68 | 0.0 | 0.0 | 0.00 | 0.00 | 0.00 | 42 | |
| 20260502105022 | 62 | 68 | 0.0 | 0.0 | 0.00 | 0.00 | 0.00 | 41 | |
| 20260502104523 | 61 | 68 | 0.0 | 0.0 | 0.00 | 0.00 | 0.00 | 42 | |
| 20260502104049 | 61 | 68 | 0.0 | 0.0 | 0.00 | 0.00 | 0.00 | 41 | |
| 20260502103523 | 61 | 68 | 0.0 | 0.0 | 0.00 | 0.00 | 0.00 | 41 | |
| 20260502103023 | 61 | 68 | 0.0 | 0.0 | 0.00 | 0.00 | 0.00 | 42 | |
| 20260502102523 | 61 | 68 | 0.0 | 0.0 | 0.00 | 0.00 | 0.00 | 42 | |
| 20260502102023 | 61 | 68 | 0.0 | 0.0 | 0.00 | 0.00 | 0.00 | 43 | |
| 20260502101523 | 61 | 68 | 0.0 | 0.0 | 0.00 | 0.00 | 0.00 | 42 | |
| 20260502101023 | 61 | 68 | 0.0 | 0.0 | 0.00 | 0.00 | 0.00 | 42 | |
| 20260502100523 | 61 | 68 | 0.0 | 0.0 | 0.00 | 0.00 | 0.00 | 41 | |
| 20260502091523 | 60 | 68 | 0.0 | 0.0 | 0.00 | 0.00 | 0.00 | 44 | |
| 20260502091023 | 60 | 68 | 0.0 | 0.0 | 0.00 | 0.00 | 0.00 | 46 | |
| 20260502090523 | 59 | 68 | 0.0 | 0.0 | 0.00 | 0.00 | 0.00 | 45 | |
| 20260502065523 | 52 | 68 | 0.0 | 0.0 | 0.00 | 0.00 | 0.00 | 77 | |
| 20260502065025 | 52 | 68 | 0.0 | 0.0 | 0.00 | 0.00 | 0.00 | 79 | |
| 20260502064523 | 51 | 68 | 0.0 | 0.0 | 0.00 | 0.00 | 0.00 | 87 | |
| 20260502064023 | 50 | 68 | 0.0 | 0.0 | 0.00 | 0.00 | 0.00 | 92 | |
| 20260502063703 | 50 | 68 | 0.0 | 0.0 | 0.00 | 0.00 | 0.00 | 92 | |
| 20260502063023 | 49 | 68 | 0.0 | 0.0 | 0.00 | 0.00 | 0.00 | 93 | |
| 20260502062228 | 47 | 68 | 0.0 | 0.0 | 0.00 | 0.00 | 0.00 | 99 | |
| 20260502061523 | 47 | 68 | 0.0 | 0.0 | 0.00 | 0.00 | 0.00 | 100 | |
| 20260502061023 | 46 | 68 | 0.0 | 0.0 | 0.00 | 0.00 | 0.00 | 100 | |
| 20260502060523 | 45 | 68 | 0.0 | 0.0 | 0.00 | 0.00 | 0.00 | 100 | |
| 20260502060023 | 44 | 68 | 0.0 | 0.0 | 0.00 | 0.00 | 0.00 | 100 | |
| 20260502055523 | 44 | 68 | 0.0 | 0.0 | 0.00 | 0.00 | 0.00 | 100 | |
| 20260502055023 | 43 | 68 | 0.0 | 0.0 | 0.00 | 0.00 | 0.00 | 100 | |
| 20260502054523 | 43 | 68 | 0.0 | 0.0 | 0.00 | 0.00 | 0.00 | 100 | |
| 20260502054023 | 42 | 68 | 0.0 | 0.0 | 0.00 | 0.00 | 0.00 | 100 | |
| 20260502053523 | 42 | 68 | 0.0 | 0.0 | 0.00 | 0.00 | 0.00 | 100 | |
| 20260502053023 | 41 | 68 | 0.0 | 0.0 | 0.00 | 0.00 | 0.00 | 100 | |
| 20260502052524 | 40 | 68 | 0.0 | 0.0 | 0.00 | 0.00 | 0.00 | 100 | |
| 20260502052023 | 40 | 68 | 0.0 | 0.0 | 0.00 | 0.00 | 0.00 | 100 | |
| 20260502051523 | 39 | 68 | 0.0 | 0.0 | 0.00 | 0.00 | 0.00 | 100 | |
| 20260502051023 | 38 | 68 | 0.0 | 0.0 | 0.00 | 0.00 | 0.00 | 100 | |
| 20260502050523 | 38 | 68 | 0.0 | 0.0 | 0.00 | 0.00 | 0.00 | 100 | |
| 20260502050023 | 37 | 68 | 0.0 | 0.0 | 0.00 | 0.00 | 0.00 | 100 | |
| 20260502045523 | 37 | 68 | 0.0 | 0.0 | 0.00 | 0.00 | 0.00 | 100 | |
| 20260502045023 | 36 | 68 | 0.0 | 0.0 | 0.00 | 0.00 | 0.00 | 100 | |
| 20260502044524 | 35 | 68 | 0.0 | 0.0 | 0.00 | 0.00 | 0.00 | 100 | |
| 20260502044023 | 34 | 68 | 0.0 | 0.0 | 0.00 | 0.00 | 0.00 | 100 | |
| 20260502043524 | 34 | 68 | 0.0 | 0.0 | 0.00 | 0.00 | 0.00 | 100 | |
| 20260502043024 | 33 | 68 | 0.0 | 0.0 | 0.00 | 0.00 | 0.00 | 100 | |
| 20260502042524 | 33 | 68 | 0.0 | 0.0 | 0.00 | 0.00 | 0.00 | 100 | |
| 20260502042024 | 32 | 68 | 0.0 | 0.0 | 0.00 | 0.00 | 0.00 | 100 | |
| 20260502041524 | 32 | 68 | 0.0 | 0.0 | 0.00 | 0.00 | 0.00 | 100 | |
| 20260502041024 | 32 | 68 | 0.0 | 0.0 | 0.00 | 0.00 | 0.00 | 100 | |
| 20260502040524 | 32 | 68 | 0.0 | 0.0 | 0.00 | 0.00 | 0.00 | 100 | |
| 20260502040024 | 32 | 68 | 0.0 | 0.0 | 0.00 | 0.00 | 0.00 | 100 | |
| 20260502035524 | 32 | 68 | 0.0 | 0.0 | 0.00 | 0.00 | 0.00 | 100 | |
| 20260502035024 | 32 | 68 | 0.0 | 0.0 | 0.00 | 0.00 | 0.00 | 100 | |
| 20260502034524 | 31 | 68 | 0.0 | 0.0 | 0.00 | 0.00 | 0.00 | 100 | |
| 20260502034024 | 32 | 68 | 0.0 | 0.0 | 0.00 | 0.00 | 0.00 | 100 | |
| 20260502033524 | 32 | 68 | 0.0 | 0.0 | 0.00 | 0.00 | 0.00 | 100 | |
| 20260502033024 | 31 | 68 | 0.0 | 0.0 | 0.00 | 0.00 | 0.00 | 100 | |
| 20260502032524 | 32 | 68 | 0.0 | 0.0 | 0.00 | 0.00 | 0.00 | 100 | |
| 20260502032024 | 31 | 68 | 0.0 | 0.0 | 0.00 | 0.00 | 0.00 | 100 | |
| 20260502031524 | 32 | 68 | 0.0 | 0.0 | 0.00 | 0.00 | 0.00 | 100 | |
| 20260502031024 | 32 | 68 | 0.0 | 0.0 | 0.00 | 0.00 | 0.00 | 100 | |
| 20260502030524 | 32 | 68 | 0.0 | 0.0 | 0.00 | 0.00 | 0.00 | 100 | |
| 20260502030024 | 32 | 68 | 0.0 | 0.0 | 0.00 | 0.00 | 0.00 | 100 | |
| 20260502025524 | 32 | 68 | 0.0 | 0.0 | 0.00 | 0.00 | 0.00 | 100 | |
| 20260502025024 | 32 | 68 | 0.0 | 0.0 | 0.00 | 0.00 | 0.00 | 100 | |
| 20260502024524 | 32 | 68 | 0.0 | 0.0 | 0.00 | 0.00 | 0.00 | 100 | |
| 20260502024024 | 32 | 68 | 0.0 | 0.0 | 0.00 | 0.00 | 0.00 | 100 | |
| 20260502023524 | 33 | 68 | 0.0 | 0.0 | 0.00 | 0.00 | 0.00 | 100 | |
| 20260502023024 | 33 | 68 | 0.0 | 0.0 | 0.00 | 0.00 | 0.00 | 100 | |
| 20260502022524 | 33 | 68 | 0.0 | 0.0 | 0.00 | 0.00 | 0.00 | 100 | |
| 20260502022024 | 33 | 68 | 0.0 | 0.0 | 0.00 | 0.00 | 0.00 | 100 | |
| 20260502021524 | 33 | 68 | 0.0 | 0.0 | 0.00 | 0.00 | 0.00 | 100 | |
| 20260502021024 | 33 | 68 | 0.0 | 0.0 | 0.00 | 0.00 | 0.00 | 100 | |
| 20260502020524 | 33 | 68 | 0.0 | 0.0 | 0.00 | 0.00 | 0.00 | 100 | |
| 20260502020024 | 33 | 68 | 0.0 | 0.0 | 0.00 | 0.00 | 0.00 | 100 | |
| 20260502015524 | 33 | 68 | 0.0 | 0.0 | 0.00 | 0.00 | 0.00 | 100 | |
| 20260502015024 | 33 | 68 | 0.0 | 0.0 | 0.00 | 0.00 | 0.00 | 100 | |
| 20260502014524 | 34 | 68 | 0.0 | 0.0 | 0.00 | 0.00 | 0.00 | 100 | |
| 20260502014024 | 33 | 68 | 0.0 | 0.0 | 0.00 | 0.00 | 0.00 | 100 | |
| 20260502013524 | 34 | 68 | 0.0 | 0.0 | 0.00 | 0.00 | 0.00 | 100 | |
| 20260502013024 | 34 | 68 | 0.0 | 0.0 | 0.00 | 0.00 | 0.00 | 100 | |
| 20260502012524 | 34 | 68 | 0.0 | 0.0 | 0.00 | 0.00 | 0.00 | 100 | |
| 20260502012024 | 34 | 68 | 0.0 | 0.0 | 0.00 | 0.00 | 0.00 | 100 | |
| 20260502011524 | 34 | 68 | 0.0 | 0.0 | 0.00 | 0.00 | 0.00 | 100 | |
| 20260502011024 | 34 | 68 | 0.0 | 0.0 | 0.00 | 0.00 | 0.00 | 100 | |
| 20260502010524 | 34 | 68 | 0.0 | 0.0 | 0.00 | 0.00 | 0.00 | 100 | |
| 20260502010024 | 34 | 68 | 0.0 | 0.0 | 0.00 | 0.00 | 0.00 | 100 | |
| 20260502005524 | 35 | 68 | 0.0 | 0.0 | 0.00 | 0.00 | 0.00 | 100 | |
| 20260502005024 | 35 | 68 | 0.0 | 0.0 | 0.00 | 0.00 | 0.00 | 100 | |
| 20260502004524 | 35 | 68 | 0.0 | 0.0 | 0.00 | 0.00 | 0.00 | 100 | |
| 20260502004024 | 35 | 68 | 0.0 | 0.0 | 0.00 | 0.00 | 0.00 | 100 | |
| 20260502003524 | 35 | 68 | 0.0 | 0.0 | 0.00 | 0.00 | 0.00 | 100 | |
| 20260502003024 | 36 | 68 | 0.0 | 0.0 | 0.00 | 0.00 | 0.00 | 100 | |
| 20260502002524 | 36 | 68 | 0.0 | 0.0 | 0.00 | 0.00 | 0.00 | 100 | |
| 20260502002024 | 36 | 68 | 0.0 | 0.0 | 0.00 | 0.00 | 0.00 | 100 | |
| 20260502001524 | 36 | 68 | 0.0 | 0.0 | 0.00 | 0.00 | 0.00 | 100 | |
| 20260502001024 | 36 | 68 | 0.0 | 0.0 | 0.00 | 0.00 | 0.00 | 100 | |
| 20260502000524 | 36 | 68 | 0.0 | 0.0 | 0.00 | 0.00 | 0.00 | 100 | |
| 20260502000024 | 36 | 68 | 0.0 | 0.0 | 0.00 | 0.00 | 0.00 | 100 | |
| 20260501235524 | 36 | 68 | 0.0 | 0.0 | 0.00 | 0.00 | 0.00 | 100 | |
| 20260501235024 | 36 | 68 | 0.0 | 0.0 | 0.00 | 0.00 | 0.00 | 100 | |
| 20260501234524 | 37 | 68 | 0.0 | 0.0 | 0.00 | 0.00 | 0.00 | 100 | |
| 20260501234024 | 37 | 68 | 0.0 | 0.0 | 0.00 | 0.00 | 0.00 | 100 | |
| 20260501233524 | 37 | 68 | 0.0 | 0.0 | 0.00 | 0.00 | 0.00 | 100 | |
| 20260501233024 | 37 | 68 | 0.0 | 0.0 | 0.00 | 0.00 | 0.00 | 100 | |
| 20260501232525 | 37 | 68 | 0.0 | 0.0 | 0.00 | 0.00 | 0.00 | 100 | |
| 20260501232024 | 38 | 68 | 0.0 | 0.0 | 0.00 | 0.00 | 0.00 | 100 | |
| 20260501231524 | 38 | 68 | 0.0 | 0.0 | 0.00 | 0.00 | 0.00 | 100 | |
| 20260501231024 | 38 | 68 | 0.0 | 0.0 | 0.00 | 0.00 | 0.00 | 100 | |
| 20260501230524 | 38 | 68 | 0.0 | 0.0 | 0.00 | 0.00 | 0.00 | 100 | |
| 20260501230025 | 38 | 68 | 0.0 | 0.0 | 0.00 | 0.00 | 0.00 | 100 | |
| 20260501225525 | 38 | 68 | 0.0 | 0.0 | 0.00 | 0.00 | 0.00 | 100 | |
| 20260501225025 | 38 | 68 | 0.0 | 0.0 | 0.00 | 0.00 | 0.00 | 100 | |
| 20260501224525 | 39 | 68 | 0.0 | 0.0 | 0.00 | 0.00 | 0.00 | 100 | |
| 20260501224025 | 39 | 68 | 0.0 | 0.0 | 0.00 | 0.00 | 0.00 | 100 | |
| 20260501223525 | 39 | 68 | 0.0 | 0.0 | 0.00 | 0.00 | 0.00 | 100 | |
| 20260501223025 | 39 | 68 | 0.0 | 0.0 | 0.00 | 0.00 | 0.00 | 100 | |
| 20260501222525 | 39 | 68 | 0.0 | 0.0 | 0.00 | 0.00 | 0.00 | 100 | |
| 20260501222025 | 40 | 68 | 0.0 | 0.0 | 0.00 | 0.00 | 0.00 | 100 | |
| 20260501221525 | 40 | 68 | 0.0 | 0.0 | 0.00 | 0.00 | 0.00 | 100 | |
| 20260501221025 | 40 | 68 | 0.0 | 0.0 | 0.00 | 0.00 | 0.00 | 100 | |
| 20260501220525 | 41 | 68 | 0.0 | 0.0 | 0.00 | 0.00 | 0.00 | 100 | |
| 20260501220025 | 41 | 68 | 0.0 | 0.0 | 0.00 | 0.00 | 0.00 | 99 | |
| 20260501215525 | 41 | 68 | 0.0 | 0.0 | 0.00 | 0.00 | 0.00 | 99 | |
| 20260501215025 | 41 | 68 | 0.0 | 0.0 | 0.00 | 0.00 | 0.00 | 99 | |
| 20260501214525 | 41 | 68 | 0.0 | 0.0 | 0.00 | 0.00 | 0.00 | 99 | |
| 20260501214025 | 41 | 68 | 0.0 | 0.0 | 0.00 | 0.00 | 0.00 | 99 | |
| 20260501213525 | 42 | 68 | 0.0 | 0.0 | 0.00 | 0.00 | 0.00 | 99 | |
| 20260501213025 | 41 | 68 | 0.0 | 0.0 | 0.00 | 0.00 | 0.00 | 98 | |
| 20260501212525 | 42 | 68 | 0.0 | 0.0 | 0.00 | 0.00 | 0.00 | 99 | |
| 20260501212025 | 42 | 68 | 0.0 | 0.0 | 0.00 | 0.00 | 0.00 | 99 | |
| 20260501211525 | 41 | 68 | 0.0 | 0.0 | 0.00 | 0.00 | 0.00 | 99 | |
| 20260501211025 | 41 | 68 | 0.0 | 0.0 | 0.00 | 0.00 | 0.00 | 99 | |
| 20260501210525 | 41 | 68 | 0.0 | 0.0 | 0.00 | 0.00 | 0.00 | 98 | |
| 20260501210025 | 41 | 68 | 0.0 | 0.0 | 0.00 | 0.00 | 0.00 | 98 | |
| 20260501205525 | 42 | 68 | 0.0 | 0.0 | 0.00 | 0.00 | 0.00 | 98 | |
| 20260501205025 | 42 | 68 | 0.0 | 0.0 | 0.00 | 0.00 | 0.00 | 98 | |
| 20260501204525 | 42 | 68 | 0.0 | 0.0 | 0.00 | 0.00 | 0.00 | 97 | |
| 20260501204025 | 42 | 68 | 0.0 | 0.0 | 0.00 | 0.00 | 0.00 | 98 | |
| 20260501203525 | 42 | 68 | 0.0 | 0.0 | 0.00 | 0.00 | 0.00 | 97 | |
| 20260501203025 | 42 | 68 | 0.0 | 0.0 | 0.00 | 0.00 | 0.00 | 97 | |
| 20260501202525 | 42 | 68 | 0.0 | 0.0 | 0.00 | 0.00 | 0.00 | 97 | |
| 20260501202025 | 42 | 68 | 0.0 | 0.0 | 0.00 | 0.00 | 0.00 | 96 | |
| 20260501201525 | 42 | 68 | 0.0 | 0.0 | 0.00 | 0.00 | 0.00 | 96 | |
| 20260501201025 | 42 | 68 | 0.0 | 0.0 | 0.00 | 0.00 | 0.00 | 96 | |
| 20260501200525 | 43 | 68 | 0.0 | 0.0 | 0.00 | 0.00 | 0.00 | 95 | |
| 20260501200025 | 43 | 68 | 0.0 | 0.0 | 0.00 | 0.00 | 0.00 | 95 | |
| 20260501195525 | 43 | 68 | 0.0 | 0.0 | 0.00 | 0.00 | 0.00 | 95 | |
| 20260501195025 | 43 | 68 | 0.0 | 0.0 | 0.00 | 0.00 | 0.00 | 95 |